Thomas, New Mexico
Current Conditions -  °F | °C
As of 7:29 PM on Wednesday 17 Dec 2014 (Local Time) from KCAO Reporting Station
Freezing Rain Freezing Rain  
Wind Chill: 24°   Ceiling: 3900
Heat Index: 33°   Visibility: 10mi
Dew Point: 29°   Wind: 13mph
Humidity: 85%   Direction: 360°N
Pressure: 29.95"   Gusts: NA
Location:  36.2639°N, 103.376°W
Report Text: KCAO 180229Z AUTO 36011KT 10SM -FZRA SCT026 OVC039 01/M02 A2995 RMK AO2 RAE0157FZRAB0157 P0001 I1002 T00061017
Loading
Personal Weather Stations






























Interactive Weather Map New forecast layout! Learn more

10-Day Weather Forecast

Advertisements
Track Severe Weather on mobile